AUR217 EGJA-EGJB

Flight info

Callsign AUR217
Flight time 0h 22m
Altitude 2000
Route GUR
Aircraft DHC6/L-SDFGR/C

Departure

Time 2026-05-07 20:44
Airport Alderney Airport (EGJA)

Arrival

Time 2026-05-07 21:06
Airport Guernsey Airport (EGJB)
Time Latitude Longitude Altitude Speed Heading
2026-05-07 20:33 49.70866 -2.21408 295 ft 0 kts 239°
2026-05-07 20:39 49.70865 -2.21410 295 ft 0 kts 213°
2026-05-07 20:39 49.70855 -2.21416 295 ft 2 kts 202°
2026-05-07 20:40 49.70833 -2.21431 295 ft 3 kts 211°
2026-05-07 20:40 49.70808 -2.21468 295 ft 6 kts 230°
2026-05-07 20:40 49.70784 -2.21537 295 ft 8 kts 248°
2026-05-07 20:40 49.70735 -2.21570 295 ft 7 kts 159°
2026-05-07 20:41 49.70696 -2.21545 295 ft 4 kts 159°
2026-05-07 20:41 49.70665 -2.21540 295 ft 4 kts 226°
2026-05-07 20:41 49.70655 -2.21606 295 ft 9 kts 262°
2026-05-07 20:41 49.70639 -2.21739 295 ft 15 kts 260°
2026-05-07 20:42 49.70618 -2.21928 295 ft 17 kts 262°
2026-05-07 20:42 49.70616 -2.22000 295 ft 5 kts 271°
2026-05-07 20:42 49.70600 -2.22049 295 ft 3 kts 129°
2026-05-07 20:42 49.70609 -2.22012 295 ft 3 kts 78°
2026-05-07 20:43 49.70610 -2.22003 295 ft 0 kts 81°
2026-05-07 20:43 49.70620 -2.21909 295 ft 40 kts 78°
2026-05-07 20:43 49.70717 -2.21151 481 ft 86 kts 79°
2026-05-07 20:43 49.70883 -2.20189 721 ft 95 kts 80°
2026-05-07 20:44 49.70886 -2.19185 956 ft 102 kts 116°
2026-05-07 20:44 49.70253 -2.18706 1195 ft 116 kts 181°
2026-05-07 20:44 49.69574 -2.19424 1495 ft 120 kts 218°
2026-05-07 20:44 49.68977 -2.20309 1762 ft 119 kts 216°
2026-05-07 20:45 49.68330 -2.21027 2031 ft 117 kts 205°
2026-05-07 20:45 49.67720 -2.22059 2014 ft 138 kts 224°
2026-05-07 20:45 49.67072 -2.23244 2010 ft 149 kts 225°
2026-05-07 20:45 49.66396 -2.24495 2008 ft 157 kts 226°
2026-05-07 20:46 49.65690 -2.25832 2006 ft 162 kts 226°
2026-05-07 20:46 49.64974 -2.27199 2002 ft 165 kts 223°
2026-05-07 20:46 49.64151 -2.28461 2004 ft 167 kts 221°
2026-05-07 20:46 49.63336 -2.29747 2004 ft 169 kts 221°
2026-05-07 20:47 49.62507 -2.31055 2003 ft 171 kts 221°
2026-05-07 20:47 49.61684 -2.32353 2003 ft 171 kts 221°
2026-05-07 20:47 49.60841 -2.33683 2002 ft 171 kts 221°
2026-05-07 20:47 49.60009 -2.34992 2003 ft 172 kts 221°
2026-05-07 20:48 49.59163 -2.36323 2003 ft 172 kts 221°
2026-05-07 20:48 49.58329 -2.37635 2003 ft 172 kts 221°
2026-05-07 20:48 49.57491 -2.38951 2003 ft 173 kts 221°
2026-05-07 20:48 49.56649 -2.40272 2003 ft 173 kts 221°
2026-05-07 20:49 49.55800 -2.41604 2003 ft 173 kts 221°
2026-05-07 20:49 49.54967 -2.42909 2003 ft 173 kts 221°
2026-05-07 20:49 49.54119 -2.44237 2002 ft 173 kts 221°
2026-05-07 20:49 49.53274 -2.45559 2002 ft 173 kts 221°
2026-05-07 20:50 49.52433 -2.46875 2002 ft 173 kts 221°
2026-05-07 20:50 49.51592 -2.48189 2002 ft 173 kts 221°
2026-05-07 20:50 49.50745 -2.49513 2003 ft 173 kts 221°
2026-05-07 20:50 49.49901 -2.50831 2003 ft 173 kts 221°
2026-05-07 20:51 49.49062 -2.52141 2002 ft 173 kts 221°
2026-05-07 20:51 49.48217 -2.53460 2003 ft 173 kts 221°
2026-05-07 20:51 49.47384 -2.54763 2000 ft 168 kts 221°
2026-05-07 20:51 49.46579 -2.56026 1999 ft 162 kts 221°
2026-05-07 20:52 49.45807 -2.57236 2000 ft 158 kts 220°
2026-05-07 20:52 49.45042 -2.58442 2001 ft 152 kts 220°
2026-05-07 20:52 49.44395 -2.59649 1996 ft 143 kts 227°
2026-05-07 20:52 49.43813 -2.60841 1996 ft 134 kts 229°
2026-05-07 20:53 49.43570 -2.62193 1991 ft 135 kts 272°
2026-05-07 20:53 49.43671 -2.63593 1998 ft 128 kts 271°
2026-05-07 20:53 49.43704 -2.64918 1998 ft 122 kts 266°
2026-05-07 20:53 49.43704 -2.66196 1996 ft 116 kts 265°
2026-05-07 20:54 49.43693 -2.67407 1996 ft 111 kts 262°
2026-05-07 20:54 49.43695 -2.68580 1996 ft 107 kts 264°
2026-05-07 20:54 49.43680 -2.69697 1996 ft 102 kts 263°
2026-05-07 20:54 49.43668 -2.70768 1995 ft 98 kts 263°
2026-05-07 20:55 49.43660 -2.71796 1995 ft 93 kts 263°
2026-05-07 20:55 49.43653 -2.72807 2003 ft 96 kts 263°
2026-05-07 20:55 49.43644 -2.73847 2006 ft 100 kts 263°
2026-05-07 20:55 49.43631 -2.74935 2006 ft 105 kts 263°
2026-05-07 20:56 49.43613 -2.76089 2007 ft 111 kts 263°
2026-05-07 20:56 49.43591 -2.77307 2007 ft 117 kts 263°
2026-05-07 20:56 49.43565 -2.78583 2005 ft 121 kts 263°
2026-05-07 20:56 49.43535 -2.79907 2004 ft 125 kts 263°
2026-05-07 20:57 49.43502 -2.81253 2004 ft 128 kts 263°
2026-05-07 20:57 49.43754 -2.82577 1998 ft 134 kts 307°
2026-05-07 20:57 49.44357 -2.83688 2003 ft 136 kts 311°
2026-05-07 20:57 49.44965 -2.84793 2000 ft 134 kts 311°
2026-05-07 20:58 49.45551 -2.85880 1997 ft 133 kts 305°
2026-05-07 20:58 49.45761 -2.87215 1995 ft 127 kts 259°
2026-05-07 20:58 49.45395 -2.88375 1996 ft 116 kts 216°
2026-05-07 20:58 49.44708 -2.88816 1996 ft 104 kts 174°
2026-05-07 20:59 49.44080 -2.88410 1998 ft 97 kts 134°
2026-05-07 20:59 49.43598 -2.87676 2001 ft 97 kts 133°
2026-05-07 20:59 49.43162 -2.86899 2001 ft 96 kts 126°
2026-05-07 20:59 49.42779 -2.86045 1995 ft 97 kts 111°
2026-05-07 21:00 49.42767 -2.85000 2001 ft 98 kts 91°
2026-05-07 21:00 49.42803 -2.83960 2001 ft 98 kts 91°
2026-05-07 21:00 49.42838 -2.82917 2001 ft 97 kts 91°
2026-05-07 21:00 49.42872 -2.81868 2001 ft 97 kts 91°
2026-05-07 21:01 49.42904 -2.80840 2001 ft 97 kts 92°
2026-05-07 21:01 49.42936 -2.79798 2001 ft 97 kts 92°
2026-05-07 21:01 49.42966 -2.78757 2001 ft 97 kts 92°
2026-05-07 21:01 49.42996 -2.77718 2001 ft 97 kts 91°
2026-05-07 21:02 49.43027 -2.76682 2001 ft 97 kts 91°
2026-05-07 21:02 49.43057 -2.75653 2001 ft 97 kts 91°
2026-05-07 21:02 49.43088 -2.74600 1961 ft 101 kts 92°
2026-05-07 21:02 49.43119 -2.73470 1841 ft 106 kts 92°
2026-05-07 21:03 49.43153 -2.72294 1708 ft 114 kts 91°
2026-05-07 21:03 49.43189 -2.71054 1557 ft 115 kts 91°
2026-05-07 21:03 49.43224 -2.69846 1403 ft 111 kts 91°
2026-05-07 21:03 49.43257 -2.68691 1278 ft 102 kts 91°
2026-05-07 21:04 49.43288 -2.67642 1134 ft 94 kts 91°
2026-05-07 21:04 49.43314 -2.66689 999 ft 84 kts 90°
2026-05-07 21:04 49.43339 -2.65823 892 ft 80 kts 91°
2026-05-07 21:04 49.43362 -2.64996 778 ft 74 kts 91°
2026-05-07 21:05 49.43384 -2.64238 686 ft 68 kts 91°
2026-05-07 21:05 49.43403 -2.63529 612 ft 63 kts 91°
2026-05-07 21:05 49.43425 -2.62871 510 ft 60 kts 90°
2026-05-07 21:05 49.43444 -2.62236 412 ft 59 kts 90°
2026-05-07 21:06 49.43465 -2.61581 361 ft 63 kts 91°
2026-05-07 21:06 49.43479 -2.60887 306 ft 65 kts 90°
2026-05-07 21:06 49.43493 -2.60298 311 ft 45 kts 87°
2026-05-07 21:06 49.43503 -2.59915 322 ft 13 kts 91°
2026-05-07 21:07 49.43470 -2.59864 324 ft 7 kts 169°
2026-05-07 21:07 49.43403 -2.59857 325 ft 12 kts 177°
2026-05-07 21:07 49.43348 -2.59805 327 ft 8 kts 84°
2026-05-07 21:07 49.43356 -2.59745 329 ft 3 kts 76°
2026-05-07 21:08 49.43361 -2.59711 330 ft 4 kts 80°
2026-05-07 21:08 49.43362 -2.59615 331 ft 14 kts 91°
2026-05-07 21:08 49.43366 -2.59477 332 ft 9 kts 83°
2026-05-07 21:08 49.43369 -2.59421 332 ft 1 kts 86°
2026-05-07 21:09 49.43369 -2.59418 332 ft 0 kts 85°
2026-05-07 21:09 49.43369 -2.59412 332 ft 2 kts 85°
2026-05-07 21:09 49.43372 -2.59363 332 ft 4 kts 87°
2026-05-07 21:09 49.43348 -2.59340 332 ft 5 kts 182°
2026-05-07 21:10 49.43310 -2.59341 332 ft 4 kts 174°
2026-05-07 21:10 49.43297 -2.59340 332 ft 0 kts 178°